createdAt,value
2022-11-29T00:00:15.748Z,11.60
2022-11-29T00:02:43.141Z,10.45
2022-11-29T00:05:11.629Z,12.25
2022-11-29T00:07:41.821Z,10.38
2022-11-29T00:10:09.845Z,15.00
2022-11-29T00:12:37.314Z,11.00
2022-11-29T00:15:05.049Z,12.10
2022-11-29T00:17:32.640Z,11.02
2022-11-29T00:20:00.285Z,11.57
2022-11-29T00:22:28.491Z,11.05
2022-11-29T00:24:55.810Z,12.55
2022-11-29T00:27:23.579Z,11.40
2022-11-29T00:29:51.239Z,12.90
2022-11-29T00:32:18.619Z,10.73
2022-11-29T00:34:46.248Z,12.02
2022-11-29T00:37:16.268Z,9.93
2022-11-29T00:39:43.835Z,12.02
2022-11-29T00:42:11.194Z,10.05
2022-11-29T00:44:38.753Z,11.13
2022-11-29T00:47:06.301Z,13.75
2022-11-29T00:49:33.713Z,13.13
2022-11-29T00:52:01.428Z,11.20
2022-11-29T00:54:28.920Z,11.75
2022-11-29T00:56:56.565Z,14.13
2022-11-29T00:59:23.872Z,11.30
2022-11-29T01:01:51.433Z,12.10
2022-11-29T01:04:19.425Z,10.57
2022-11-29T01:06:46.784Z,11.65
2022-11-29T01:09:17.381Z,12.68
2022-11-29T01:11:44.981Z,13.20
2022-11-29T01:14:12.948Z,11.48
2022-11-29T01:16:41.773Z,11.40
2022-11-29T01:19:12.422Z,11.13
2022-11-29T01:21:40.034Z,13.02
2022-11-29T01:24:08.242Z,13.60
2022-11-29T01:26:35.570Z,11.52
2022-11-29T01:29:03.343Z,10.75
2022-11-29T01:31:38.228Z,10.05
2022-11-29T01:34:07.113Z,11.65
2022-11-29T01:36:35.571Z,12.30
2022-11-29T01:39:05.173Z,11.13
2022-11-29T01:41:35.148Z,10.38
2022-11-29T01:44:28.571Z,11.02
2022-11-29T01:49:28.345Z,14.05
2022-11-29T01:52:03.010Z,10.48
2022-11-29T01:54:32.031Z,11.65
2022-11-29T01:56:59.716Z,13.02
2022-11-29T01:59:29.757Z,14.15
2022-11-29T02:02:05.148Z,11.38
2022-11-29T02:04:36.072Z,12.80
2022-11-29T02:07:03.782Z,13.88
2022-11-29T02:09:32.390Z,10.75
2022-11-29T02:12:14.692Z,10.75
2022-11-29T02:15:15.830Z,10.95
2022-11-29T02:17:58.177Z,11.70
2022-11-29T02:20:54.096Z,10.57
2022-11-29T02:23:28.776Z,14.00
2022-11-29T02:26:18.191Z,9.55
2022-11-29T02:29:01.022Z,10.77
2022-11-29T02:32:06.102Z,10.32
2022-11-29T02:34:52.716Z,10.88
2022-11-29T02:37:29.083Z,10.73
2022-11-29T02:40:20.256Z,11.18
2022-11-29T02:43:02.442Z,12.20
2022-11-29T02:45:49.053Z,11.93
2022-11-29T02:48:31.220Z,10.73
2022-11-29T02:51:01.270Z,10.00
2022-11-29T02:53:39.782Z,11.95
2022-11-29T02:56:32.113Z,11.25
2022-11-29T02:59:22.315Z,9.20
2022-11-29T03:02:16.042Z,10.70
2022-11-29T03:05:18.327Z,10.63
2022-11-29T03:08:07.764Z,9.57
2022-11-29T03:11:03.146Z,9.90
2022-11-29T03:13:41.784Z,9.40
2022-11-29T03:16:28.611Z,9.70
2022-11-29T03:19:05.265Z,9.63
2022-11-29T03:21:48.900Z,8.90
2022-11-29T03:24:24.085Z,10.05
2022-11-29T03:27:17.830Z,9.90
2022-11-29T03:30:00.818Z,9.38
2022-11-29T03:32:37.086Z,8.90
2022-11-29T03:35:14.326Z,9.48
2022-11-29T03:40:42.358Z,9.52
2022-11-29T03:43:20.181Z,11.10
2022-11-29T03:46:03.711Z,11.25
2022-11-29T03:48:40.007Z,10.60
2022-11-29T03:51:13.041Z,11.32
2022-11-29T03:56:35.617Z,8.52
2022-11-29T03:59:22.461Z,9.45
2022-11-29T04:01:58.210Z,9.13
2022-11-29T04:05:04.286Z,8.35
2022-11-29T04:07:37.649Z,9.38
2022-11-29T04:10:39.139Z,8.57
2022-11-29T04:13:41.522Z,10.13
2022-11-29T04:16:38.341Z,9.18
2022-11-29T04:19:20.762Z,8.93
2022-11-29T04:22:25.946Z,8.53
2022-11-29T04:24:59.384Z,9.38
2022-11-29T04:27:31.226Z,9.95
2022-11-29T04:30:21.336Z,8.52
2022-11-29T04:33:03.944Z,8.65
2022-11-29T04:35:43.424Z,10.07
2022-11-29T04:38:37.855Z,9.40
2022-11-29T04:41:39.675Z,9.38
2022-11-29T04:44:25.435Z,9.85
2022-11-29T04:47:20.239Z,10.88
2022-11-29T04:50:05.573Z,11.60
2022-11-29T04:52:54.675Z,9.70
2022-11-29T04:55:46.081Z,9.45
2022-11-29T04:58:41.268Z,10.90
2022-11-29T05:01:30.533Z,10.35
2022-11-29T05:04:17.951Z,11.10
2022-11-29T05:07:09.851Z,11.02
2022-11-29T05:09:59.079Z,10.05
2022-11-29T05:12:45.006Z,10.00
2022-11-29T05:15:45.117Z,10.57
2022-11-29T05:18:50.070Z,9.55
2022-11-29T05:21:44.154Z,9.63
2022-11-29T05:24:23.069Z,8.43
2022-11-29T05:27:11.113Z,10.60
2022-11-29T05:29:55.617Z,9.13
2022-11-29T05:32:37.513Z,8.55
2022-11-29T05:35:26.228Z,7.40
2022-11-29T05:38:27.775Z,8.65
2022-11-29T05:41:32.855Z,8.93
2022-11-29T05:44:29.916Z,8.00
2022-11-29T05:47:00.956Z,7.47
2022-11-29T05:49:58.835Z,7.30
2022-11-29T05:52:39.910Z,8.20
2022-11-29T05:55:25.838Z,8.07
2022-11-29T05:58:08.021Z,7.05
2022-11-29T06:00:50.835Z,8.65
2022-11-29T06:03:40.475Z,6.00
2022-11-29T06:06:30.629Z,8.10
2022-11-29T06:09:11.448Z,8.23
2022-11-29T06:11:55.102Z,7.22
2022-11-29T06:14:57.623Z,10.52
2022-11-29T06:17:52.891Z,7.13
2022-11-29T06:20:45.765Z,6.15
2022-11-29T06:23:51.891Z,5.55
2022-11-29T06:26:29.469Z,6.60
2022-11-29T06:29:25.550Z,7.43
2022-11-29T06:32:21.970Z,5.53
2022-11-29T06:35:02.392Z,5.97
2022-11-29T06:37:43.114Z,6.45
2022-11-29T06:40:14.630Z,6.22
2022-11-29T06:42:42.778Z,6.47
2022-11-29T06:45:14.152Z,6.53
2022-11-29T06:47:52.274Z,6.00
2022-11-29T06:50:57.559Z,5.80
2022-11-29T06:53:39.981Z,5.90
2022-11-29T06:56:31.951Z,5.25
2022-11-29T06:59:07.584Z,6.38
2022-11-29T07:01:43.947Z,6.28
2022-11-29T07:04:35.344Z,5.88
2022-11-29T07:07:02.868Z,6.38
2022-11-29T07:09:34.336Z,6.32
2022-11-29T07:12:01.944Z,7.50
2022-11-29T07:14:36.712Z,6.30
2022-11-29T07:17:26.606Z,6.70
2022-11-29T07:20:37.472Z,6.20
2022-11-29T07:23:29.653Z,6.03
2022-11-29T07:26:09.863Z,6.38
2022-11-29T07:29:02.681Z,7.40
2022-11-29T07:31:46.964Z,5.85
2022-11-29T07:34:32.784Z,4.95
2022-11-29T07:37:13.409Z,5.95
2022-11-29T07:40:12.369Z,5.00
2022-11-29T07:42:52.572Z,5.28
2022-11-29T07:45:38.083Z,4.95
2022-11-29T07:48:07.240Z,5.20
2022-11-29T07:50:38.017Z,5.78
2022-11-29T07:53:05.601Z,5.28
2022-11-29T07:55:37.406Z,5.90
2022-11-29T07:58:04.845Z,5.05
2022-11-29T08:00:33.664Z,4.57
2022-11-29T08:03:01.092Z,5.85
2022-11-29T08:05:29.823Z,5.40
2022-11-29T08:08:02.101Z,6.53
2022-11-29T08:10:32.454Z,5.90
2022-11-29T08:13:02.448Z,5.40
2022-11-29T08:15:30.472Z,5.30
2022-11-29T08:17:57.942Z,4.50
2022-11-29T08:20:27.884Z,5.65
2022-11-29T08:22:57.527Z,5.57
2022-11-29T08:25:26.014Z,6.00
2022-11-29T08:28:01.737Z,6.35
2022-11-29T08:30:32.117Z,6.53
2022-11-29T08:33:03.488Z,5.93
2022-11-29T08:35:31.459Z,6.53
2022-11-29T08:38:01.559Z,6.03
2022-11-29T08:40:34.556Z,5.70
2022-11-29T08:43:02.095Z,6.20
2022-11-29T08:45:29.791Z,5.97
2022-11-29T08:47:57.316Z,6.35
2022-11-29T08:50:28.039Z,5.93
2022-11-29T08:53:14.947Z,5.43
2022-11-29T08:58:32.949Z,9.30
2022-11-29T09:04:04.325Z,6.82
2022-11-29T09:06:45.657Z,5.45
2022-11-29T09:09:14.725Z,7.17
2022-11-29T09:11:45.866Z,6.82
2022-11-29T09:14:17.951Z,9.57
2022-11-29T09:16:45.538Z,6.60
2022-11-29T09:19:14.383Z,6.72
2022-11-29T09:21:42.586Z,6.85
2022-11-29T09:24:10.909Z,5.75
2022-11-29T09:26:40.848Z,6.85
2022-11-29T09:29:10.574Z,5.45
2022-11-29T09:31:40.353Z,6.80
2022-11-29T09:34:10.596Z,5.38
2022-11-29T09:36:38.077Z,7.00
2022-11-29T09:39:10.028Z,5.63
2022-11-29T09:41:56.881Z,6.30
2022-11-29T09:44:44.595Z,5.80
2022-11-29T09:47:35.472Z,5.28
2022-11-29T09:50:09.088Z,6.05
2022-11-29T09:52:49.313Z,7.10
2022-11-29T09:55:37.792Z,5.30
2022-11-29T09:58:11.733Z,5.80
2022-11-29T10:00:50.824Z,5.72
2022-11-29T10:03:26.568Z,5.05
2022-11-29T10:05:58.852Z,5.68
2022-11-29T10:08:32.998Z,4.20
2022-11-29T10:11:35.409Z,6.53
2022-11-29T10:14:24.377Z,6.20
2022-11-29T10:16:54.647Z,6.35
2022-11-29T10:19:36.709Z,6.53
2022-11-29T10:22:24.461Z,6.38
2022-11-29T10:25:00.159Z,6.65
2022-11-29T10:27:29.711Z,7.53
2022-11-29T10:30:01.372Z,6.10
2022-11-29T10:32:32.710Z,7.05
2022-11-29T10:35:01.692Z,6.72
2022-11-29T10:37:33.060Z,6.10
2022-11-29T10:40:07.801Z,6.80
2022-11-29T10:42:55.051Z,7.28
2022-11-29T10:45:37.850Z,6.25
2022-11-29T10:48:17.368Z,6.78
2022-11-29T10:50:48.912Z,7.70
2022-11-29T10:53:19.874Z,7.70
2022-11-29T10:55:53.766Z,7.07
2022-11-29T10:58:28.207Z,6.93
2022-11-29T11:00:56.433Z,5.90
2022-11-29T11:03:53.499Z,7.38
2022-11-29T11:06:41.865Z,6.72
2022-11-29T11:09:28.095Z,6.63
2022-11-29T11:12:07.074Z,6.90
2022-11-29T11:14:39.059Z,5.47
2022-11-29T11:17:31.616Z,6.38
2022-11-29T11:20:02.149Z,5.57
2022-11-29T11:22:31.422Z,6.63
2022-11-29T11:25:20.892Z,6.53
2022-11-29T11:27:48.723Z,6.32
2022-11-29T11:30:25.524Z,7.10
2022-11-29T11:33:19.867Z,6.90
2022-11-29T11:36:19.641Z,5.97
2022-11-29T11:38:59.663Z,7.55
2022-11-29T11:41:50.680Z,6.17
2022-11-29T11:44:46.477Z,6.68
2022-11-29T11:47:24.504Z,4.72
2022-11-29T11:50:11.515Z,4.88
2022-11-29T11:52:52.523Z,4.45
2022-11-29T11:55:39.674Z,4.68
2022-11-29T11:58:13.221Z,4.75
2022-11-29T12:01:15.900Z,4.45
2022-11-29T12:04:16.526Z,4.85
2022-11-29T12:07:01.201Z,5.03
2022-11-29T12:09:28.857Z,4.88
2022-11-29T12:12:10.744Z,4.50
2022-11-29T12:15:05.812Z,4.10
2022-11-29T12:17:44.296Z,5.20
2022-11-29T12:20:21.548Z,5.13
2022-11-29T12:23:15.276Z,5.43
2022-11-29T12:26:13.634Z,6.20
2022-11-29T12:28:52.566Z,5.55
2022-11-29T12:31:47.485Z,6.05
2022-11-29T12:34:43.651Z,6.28
2022-11-29T12:37:23.707Z,5.57
2022-11-29T12:40:16.164Z,5.55
2022-11-29T12:42:57.670Z,6.22
2022-11-29T12:45:44.165Z,6.63
2022-11-29T12:48:46.304Z,6.47
2022-11-29T12:51:55.081Z,6.95
2022-11-29T12:54:35.881Z,7.18
2022-11-29T12:57:38.456Z,4.00
2022-11-29T13:00:11.432Z,4.50
2022-11-29T13:02:56.150Z,4.32
2022-11-29T13:05:42.633Z,4.28
2022-11-29T13:08:47.240Z,3.50
2022-11-29T13:11:38.786Z,3.08
2022-11-29T13:14:42.220Z,3.78
2022-11-29T13:17:20.525Z,3.00
2022-11-29T13:19:56.011Z,2.90
2022-11-29T13:22:43.259Z,3.08
2022-11-29T13:25:24.867Z,3.03
2022-11-29T13:28:06.498Z,2.85
2022-11-29T13:30:35.874Z,2.97
2022-11-29T13:33:46.630Z,3.20
2022-11-29T13:40:51.786Z,2.38
2022-11-29T13:43:54.997Z,2.47
2022-11-29T13:46:33.579Z,3.00
2022-11-29T13:49:01.054Z,2.30
2022-11-29T13:51:38.600Z,2.22
2022-11-29T13:54:25.080Z,3.13
2022-11-29T13:57:04.354Z,3.20
2022-11-29T13:59:34.075Z,3.35
2022-11-29T14:02:01.981Z,3.72
2022-11-29T14:08:42.521Z,3.20
2022-11-29T14:11:24.248Z,2.83
2022-11-29T14:13:58.396Z,3.25
2022-11-29T14:18:00.130Z,3.35
2022-11-29T14:20:28.610Z,3.08
2022-11-29T14:23:04.855Z,4.03
2022-11-29T14:26:02.654Z,3.63
2022-11-29T14:28:40.287Z,3.30
2022-11-29T14:31:10.494Z,3.47
2022-11-29T14:33:46.898Z,3.83
2022-11-29T14:36:38.430Z,3.15
2022-11-29T14:39:38.857Z,3.22
2022-11-29T14:42:16.074Z,3.55
2022-11-29T14:44:52.730Z,3.47
2022-11-29T14:47:38.901Z,3.40
2022-11-29T14:50:09.904Z,3.95
2022-11-29T14:52:50.841Z,4.13
2022-11-29T14:55:18.105Z,3.75
2022-11-29T14:57:51.510Z,3.15
2022-11-29T15:00:42.297Z,5.70
2022-11-29T15:07:32.909Z,4.50
2022-11-29T15:10:04.496Z,4.15
2022-11-29T15:12:37.524Z,3.90
2022-11-29T15:15:33.280Z,4.40
2022-11-29T15:18:10.894Z,4.20
2022-11-29T15:20:52.044Z,4.15
2022-11-29T15:23:21.779Z,4.03
2022-11-29T15:26:02.356Z,4.05
2022-11-29T15:28:30.253Z,4.13
2022-11-29T15:31:09.782Z,5.10
2022-11-29T15:33:40.962Z,5.28
2022-11-29T15:36:19.923Z,8.25
2022-11-29T15:38:51.347Z,14.20
2022-11-29T15:41:30.327Z,11.95
2022-11-29T15:44:06.487Z,8.65
2022-11-29T15:46:35.738Z,7.10
2022-11-29T15:49:38.659Z,6.80
2022-11-29T15:56:30.679Z,8.40
2022-11-29T15:59:05.885Z,8.60
2022-11-29T16:01:34.455Z,9.90
2022-11-29T16:04:02.194Z,10.65
2022-11-29T16:06:42.662Z,10.32
2022-11-29T16:09:15.455Z,10.18
2022-11-29T16:11:43.496Z,10.40
2022-11-29T16:14:23.867Z,10.48
2022-11-29T16:16:54.540Z,9.93
2022-11-29T16:19:38.077Z,9.63
2022-11-29T16:22:14.490Z,9.77
2022-11-29T16:25:01.090Z,9.25
2022-11-29T16:27:35.633Z,10.15
2022-11-29T16:30:04.520Z,10.10
2022-11-29T16:32:36.839Z,10.38
2022-11-29T16:35:20.777Z,10.25
2022-11-29T16:37:51.223Z,11.00
2022-11-29T16:40:30.265Z,10.93
2022-11-29T16:43:20.092Z,11.15
2022-11-29T16:45:47.490Z,11.15
2022-11-29T16:48:25.512Z,11.85
2022-11-29T16:51:12.596Z,13.23
2022-11-29T16:53:47.950Z,9.70
2022-11-29T16:56:17.750Z,10.32
2022-11-29T16:59:25.096Z,10.38
2022-11-29T17:01:37.159Z,10.25
2022-11-29T17:04:04.935Z,9.77
2022-11-29T17:06:32.323Z,9.45
2022-11-29T17:08:59.824Z,10.07
2022-11-29T17:11:27.474Z,10.85
2022-11-29T17:13:55.112Z,10.88
2022-11-29T17:16:24.312Z,11.30
2022-11-29T17:18:53.059Z,11.98
2022-11-29T17:21:29.387Z,12.32
2022-11-29T17:23:56.694Z,12.55
2022-11-29T17:26:35.381Z,11.57
2022-11-29T17:29:06.219Z,12.63
2022-11-29T17:34:39.274Z,12.70
2022-11-29T17:37:10.578Z,14.15
2022-11-29T17:39:46.999Z,12.75
2022-11-29T17:42:14.669Z,12.10
2022-11-29T17:44:42.578Z,13.48
2022-11-29T17:47:10.039Z,11.68
2022-11-29T17:49:37.705Z,12.48
2022-11-29T17:52:06.580Z,14.18
2022-11-29T17:54:34.206Z,13.48
2022-11-29T17:57:03.848Z,13.52
2022-11-29T17:59:31.183Z,13.18
2022-11-29T18:01:59.392Z,13.63
2022-11-29T18:04:26.654Z,14.82
2022-11-29T18:06:54.301Z,14.45
2022-11-29T18:09:21.576Z,14.75
2022-11-29T18:11:50.333Z,16.80
2022-11-29T18:14:21.086Z,15.70
2022-11-29T18:16:48.579Z,14.65
2022-11-29T18:19:18.547Z,17.98
2022-11-29T18:21:45.821Z,19.77
2022-11-29T18:24:13.255Z,19.20
2022-11-29T18:26:41.111Z,16.48
2022-11-29T18:29:08.736Z,15.95
2022-11-29T18:31:38.320Z,15.80
2022-11-29T18:34:09.574Z,19.40
2022-11-29T18:36:55.533Z,16.58
2022-11-29T18:39:25.203Z,16.27
2022-11-29T18:41:52.602Z,14.55
2022-11-29T18:44:21.922Z,15.82
2022-11-29T18:46:49.231Z,15.40
2022-11-29T18:49:18.125Z,15.65
2022-11-29T18:51:46.589Z,16.50
2022-11-29T18:54:18.996Z,16.00
2022-11-29T18:56:46.594Z,15.57
2022-11-29T18:59:19.150Z,16.13
2022-11-29T19:01:48.276Z,20.65
2022-11-29T19:04:22.022Z,22.77
2022-11-29T19:06:52.180Z,23.67
2022-11-29T19:09:21.376Z,24.42
2022-11-29T19:11:49.834Z,21.55
2022-11-29T19:14:17.863Z,20.38
2022-11-29T19:16:47.423Z,17.52
2022-11-29T19:19:14.688Z,17.45
2022-11-29T19:21:42.633Z,18.38
2022-11-29T19:24:15.295Z,17.45
2022-11-29T19:26:45.087Z,16.70
2022-11-29T19:29:13.927Z,15.88
2022-11-29T19:31:41.782Z,17.60
2022-11-29T19:34:09.356Z,16.73
2022-11-29T19:36:43.688Z,16.75
2022-11-29T19:41:45.259Z,18.30
2022-11-29T19:44:13.294Z,16.42
2022-11-29T19:46:49.553Z,16.98
2022-11-29T19:49:16.896Z,19.33
2022-11-29T19:51:44.448Z,16.08
2022-11-29T19:54:12.146Z,18.08
2022-11-29T19:56:40.155Z,17.20
2022-11-29T19:59:08.806Z,15.73
2022-11-29T20:01:40.938Z,15.10
2022-11-29T20:04:13.217Z,15.95
2022-11-29T20:06:43.198Z,14.98
2022-11-29T20:09:13.592Z,14.40
2022-11-29T20:11:41.038Z,16.80
2022-11-29T20:14:13.646Z,15.95
2022-11-29T20:16:41.681Z,15.25
2022-11-29T20:19:14.778Z,17.00
2022-11-29T20:21:51.351Z,16.45
2022-11-29T20:24:19.624Z,15.45
2022-11-29T20:26:50.974Z,19.30
2022-11-29T20:29:30.417Z,18.75
2022-11-29T20:31:57.958Z,17.30
2022-11-29T20:37:30.252Z,15.77
2022-11-29T20:40:04.596Z,19.90
2022-11-29T20:42:43.897Z,21.80
2022-11-29T20:45:15.655Z,19.23
2022-11-29T20:47:55.014Z,18.02
2022-11-29T20:50:28.121Z,18.25
2022-11-29T20:53:16.628Z,17.48
2022-11-29T20:55:47.990Z,19.17
2022-11-29T20:58:16.317Z,18.42
2022-11-29T21:00:43.681Z,16.60
2022-11-29T21:03:18.589Z,20.92
2022-11-29T21:05:46.472Z,22.48
2022-11-29T21:08:14.500Z,21.90
2022-11-29T21:10:41.951Z,21.00
2022-11-29T21:13:11.783Z,23.75
2022-11-29T21:15:40.053Z,20.73
2022-11-29T21:18:07.683Z,24.92
2022-11-29T21:20:34.970Z,23.23
2022-11-29T21:23:48.218Z,22.52
2022-11-29T21:26:50.132Z,20.08
2022-11-29T21:29:22.712Z,21.60
2022-11-29T21:31:54.182Z,22.67
2022-11-29T21:34:22.042Z,21.48
2022-11-29T21:36:56.582Z,24.52
2022-11-29T21:39:33.870Z,22.00
2022-11-29T21:42:02.101Z,25.45
2022-11-29T21:44:29.105Z,22.95
2022-11-29T21:46:56.210Z,20.63
2022-11-29T21:49:23.408Z,21.17
2022-11-29T21:51:50.500Z,22.30
2022-11-29T21:54:17.578Z,21.15
2022-11-29T21:56:44.692Z,22.23
2022-11-29T21:59:14.779Z,24.17
2022-11-29T22:01:41.896Z,22.67
2022-11-29T22:04:09.165Z,21.48
2022-11-29T22:06:36.866Z,23.10
2022-11-29T22:09:04.920Z,19.98
2022-11-29T22:11:32.159Z,19.05
2022-11-29T22:14:19.315Z,18.50
2022-11-29T22:16:50.766Z,15.77
2022-11-29T22:19:25.281Z,16.45
2022-11-29T22:21:55.335Z,15.00
2022-11-29T22:24:24.482Z,21.70
2022-11-29T22:26:52.761Z,23.48
2022-11-29T22:29:19.993Z,34.80
2022-11-29T22:31:49.264Z,29.45
2022-11-29T22:34:16.808Z,34.00
2022-11-29T22:36:43.921Z,27.60
2022-11-29T22:39:11.257Z,26.23
2022-11-29T22:41:39.524Z,21.60
2022-11-29T22:44:07.537Z,19.88
2022-11-29T22:46:40.359Z,22.60
2022-11-29T22:49:07.667Z,23.20
2022-11-29T22:51:36.870Z,22.23
2022-11-29T22:54:09.735Z,18.38
2022-11-29T22:56:39.255Z,16.20
2022-11-29T22:59:08.870Z,18.08
2022-11-29T23:01:39.079Z,16.15
2022-11-29T23:04:10.148Z,15.85
2022-11-29T23:06:42.674Z,17.33
2022-11-29T23:09:21.387Z,15.55
2022-11-29T23:11:53.944Z,16.40
2022-11-29T23:14:22.216Z,13.98
2022-11-29T23:16:49.456Z,12.00
2022-11-29T23:19:17.249Z,9.55
2022-11-29T23:21:45.837Z,11.00
2022-11-29T23:24:14.370Z,9.07
2022-11-29T23:26:44.898Z,8.82
2022-11-29T23:29:14.880Z,7.88
2022-11-29T23:31:42.678Z,10.02
2022-11-29T23:34:09.834Z,10.57
2022-11-29T23:36:36.829Z,13.98
2022-11-29T23:39:05.376Z,11.77
2022-11-29T23:41:33.262Z,13.45
2022-11-29T23:44:00.350Z,13.23
2022-11-29T23:46:27.361Z,11.90
2022-11-29T23:48:54.486Z,12.02
2022-11-29T23:51:21.573Z,9.95
2022-11-29T23:53:52.988Z,11.35
2022-11-29T23:56:21.091Z,13.55
2022-11-29T23:58:48.446Z,14.73
